createdAt,value
2023-09-11T00:04:57.141Z,19.60
2023-09-11T00:09:59.419Z,17.30
2023-09-11T00:15:01.651Z,18.10
2023-09-11T00:20:11.434Z,16.60
2023-09-11T00:25:13.535Z,18.40
2023-09-11T00:30:15.348Z,16.80
2023-09-11T00:35:17.551Z,16.60
2023-09-11T00:40:19.545Z,17.20
2023-09-11T00:45:21.407Z,16.00
2023-09-11T00:50:24.167Z,16.90
2023-09-11T00:55:27.859Z,17.40
2023-09-11T01:00:30.046Z,16.70
2023-09-11T01:05:33.382Z,16.00
2023-09-11T01:10:36.648Z,16.10
2023-09-11T01:16:03.771Z,15.30
2023-09-11T01:21:43.894Z,15.40
2023-09-11T01:27:22.253Z,15.90
2023-09-11T01:32:26.882Z,15.80
2023-09-11T01:37:31.239Z,16.30
2023-09-11T01:42:48.569Z,15.80
2023-09-11T01:47:52.838Z,16.00
2023-09-11T01:52:55.099Z,16.40
2023-09-11T01:57:57.042Z,17.90
2023-09-11T02:02:59.260Z,19.40
2023-09-11T02:08:01.247Z,19.50
2023-09-11T02:13:03.418Z,16.50
2023-09-11T02:18:05.485Z,17.10
2023-09-11T02:23:07.477Z,18.00
2023-09-11T02:28:09.542Z,16.90
2023-09-11T02:33:11.743Z,18.90
2023-09-11T02:38:14.416Z,17.50
2023-09-11T02:43:16.765Z,17.50
2023-09-11T02:48:18.849Z,18.20
2023-09-11T02:53:21.534Z,16.40
2023-09-11T02:58:24.011Z,15.60
2023-09-11T03:03:26.218Z,14.50
2023-09-11T03:08:29.808Z,14.90
2023-09-11T03:13:32.583Z,15.50
2023-09-11T03:18:34.768Z,17.30
2023-09-11T03:23:37.409Z,19.00
2023-09-11T03:28:39.974Z,18.10
2023-09-11T03:33:42.722Z,15.50
2023-09-11T03:38:45.608Z,14.70
2023-09-11T03:43:47.794Z,14.60
2023-09-11T03:48:50.271Z,14.00
2023-09-11T03:53:52.789Z,16.30
2023-09-11T03:58:56.961Z,18.60
2023-09-11T04:07:13.610Z,18.20
2023-09-11T04:12:19.325Z,19.20
2023-09-11T04:17:21.380Z,20.30
2023-09-11T04:22:23.525Z,20.30
2023-09-11T04:27:25.948Z,19.30
2023-09-11T04:32:28.112Z,16.60
2023-09-11T04:37:31.357Z,15.10
2023-09-11T04:42:34.830Z,16.30
2023-09-11T04:47:37.159Z,17.40
2023-09-11T04:52:40.632Z,13.80
2023-09-11T04:57:43.222Z,14.40
2023-09-11T05:02:47.673Z,14.10
2023-09-11T05:07:49.871Z,16.00
2023-09-11T05:12:52.778Z,15.40
2023-09-11T05:17:54.945Z,15.50
2023-09-11T05:22:56.906Z,14.90
2023-09-11T05:27:58.794Z,13.00
2023-09-11T05:33:01.148Z,12.20
2023-09-11T05:38:03.597Z,12.80
2023-09-11T05:43:05.579Z,11.40
2023-09-11T05:48:07.694Z,11.50
2023-09-11T05:53:09.591Z,10.70
2023-09-11T05:58:11.483Z,10.70
2023-09-11T06:03:13.433Z,10.70
2023-09-11T06:08:16.413Z,9.30
2023-09-11T06:13:18.522Z,9.80
2023-09-11T06:18:20.683Z,8.90
2023-09-11T06:23:22.616Z,8.50
2023-09-11T06:28:24.850Z,8.20
2023-09-11T06:33:28.965Z,7.30
2023-09-11T06:38:31.001Z,7.50
2023-09-11T06:43:33.191Z,7.50
2023-09-11T06:48:35.152Z,7.90
2023-09-11T06:53:37.187Z,8.00
2023-09-11T06:58:40.289Z,8.50
2023-09-11T07:03:43.217Z,8.50
2023-09-11T07:08:45.270Z,8.20
2023-09-11T07:13:47.308Z,7.50
2023-09-11T07:18:50.474Z,8.70
2023-09-11T07:23:52.724Z,9.10
2023-09-11T07:28:55.673Z,8.60
2023-09-11T07:33:57.613Z,7.90
2023-09-11T07:38:59.463Z,8.50
2023-09-11T07:44:01.381Z,7.90
2023-09-11T07:49:03.419Z,7.90
2023-09-11T07:54:05.562Z,8.10
2023-09-11T07:59:07.483Z,8.00
2023-09-11T08:04:09.503Z,7.90
2023-09-11T08:09:11.835Z,7.90
2023-09-11T08:14:13.752Z,7.70
2023-09-11T08:19:16.035Z,8.00
2023-09-11T08:24:17.823Z,7.90
2023-09-11T08:29:19.793Z,8.10
2023-09-11T08:34:21.775Z,8.10
2023-09-11T08:39:24.489Z,7.50
2023-09-11T08:44:27.262Z,7.90
2023-09-11T08:49:34.683Z,6.90
2023-09-11T08:54:42.202Z,7.10
2023-09-11T08:59:48.348Z,7.10
2023-09-11T09:04:52.201Z,6.80
2023-09-11T09:09:54.902Z,7.10
2023-09-11T09:14:57.954Z,6.60
2023-09-11T09:19:59.997Z,7.10
2023-09-11T09:25:02.151Z,7.60
2023-09-11T09:30:04.610Z,7.70
2023-09-11T09:35:07.619Z,8.40
2023-09-11T09:40:09.951Z,7.40
2023-09-11T09:45:29.802Z,6.90
2023-09-11T09:50:47.112Z,6.60
2023-09-11T09:55:49.038Z,7.60
2023-09-11T10:00:57.929Z,5.60
2023-09-11T10:05:59.795Z,5.50
2023-09-11T10:11:01.867Z,6.40
2023-09-11T10:16:04.603Z,6.40
2023-09-11T10:21:07.052Z,5.80
2023-09-11T10:26:10.725Z,6.00
2023-09-11T10:31:21.576Z,6.40
2023-09-11T10:36:34.491Z,6.00
2023-09-11T10:41:37.051Z,5.80
2023-09-11T10:46:40.467Z,6.10
2023-09-11T10:51:42.596Z,6.20
2023-09-11T10:56:44.750Z,4.40
2023-09-11T11:01:48.093Z,5.00
2023-09-11T11:06:52.052Z,5.60
2023-09-11T11:11:58.056Z,5.40
2023-09-11T11:17:09.819Z,5.30
2023-09-11T11:22:30.848Z,5.20
2023-09-11T11:27:32.686Z,5.50
2023-09-11T11:32:36.433Z,5.50
2023-09-11T11:37:45.376Z,4.90
2023-09-11T11:42:47.528Z,5.80
2023-09-11T11:47:51.199Z,5.50
2023-09-11T11:52:53.086Z,5.50
2023-09-11T11:57:55.693Z,6.00
2023-09-11T12:03:10.936Z,5.70
2023-09-11T12:08:13.981Z,5.40
2023-09-11T12:13:24.603Z,4.80
2023-09-11T12:18:32.621Z,5.60
2023-09-11T12:23:35.643Z,6.10
2023-09-11T12:28:38.047Z,5.00
2023-09-11T12:33:40.031Z,6.20
2023-09-11T12:38:46.847Z,5.30
2023-09-11T12:43:48.875Z,5.40
2023-09-11T12:48:52.926Z,4.70
2023-09-11T12:53:54.970Z,5.70
2023-09-11T12:58:57.580Z,5.00
2023-09-11T13:03:59.956Z,4.90
2023-09-11T13:09:04.132Z,5.20
2023-09-11T13:14:15.172Z,5.20
2023-09-11T13:19:18.664Z,5.80
2023-09-11T13:24:20.870Z,6.40
2023-09-11T13:29:22.798Z,5.20
2023-09-11T13:34:24.842Z,5.30
2023-09-11T13:39:26.790Z,4.80
2023-09-11T13:44:28.630Z,4.70
2023-09-11T13:49:30.580Z,5.00
2023-09-11T13:54:32.690Z,5.00
2023-09-11T13:59:34.539Z,5.50
2023-09-11T14:04:36.851Z,4.80
2023-09-11T14:09:38.853Z,5.10
2023-09-11T14:14:40.670Z,4.80
2023-09-11T14:19:42.568Z,5.20
2023-09-11T14:24:44.402Z,5.10
2023-09-11T14:29:46.252Z,5.20
2023-09-11T14:34:48.320Z,5.60
2023-09-11T14:39:50.514Z,5.30
2023-09-11T14:44:53.240Z,5.30
2023-09-11T14:49:58.179Z,4.70
2023-09-11T14:55:00.373Z,5.50
2023-09-11T15:00:04.159Z,5.60
2023-09-11T15:05:06.602Z,4.30
2023-09-11T15:10:08.646Z,4.90
2023-09-11T15:15:11.062Z,4.50
2023-09-11T15:20:13.223Z,5.30
2023-09-11T15:25:15.086Z,4.40
2023-09-11T15:30:16.904Z,4.50
2023-09-11T15:35:19.441Z,4.80
2023-09-11T15:40:21.307Z,4.60
2023-09-11T15:45:23.223Z,4.70
2023-09-11T15:50:25.054Z,5.00
2023-09-11T15:55:27.030Z,5.10
2023-09-11T16:00:29.771Z,5.40
2023-09-11T16:05:32.127Z,5.10
2023-09-11T16:10:34.210Z,5.40
2023-09-11T16:15:38.417Z,5.10
2023-09-11T16:20:43.198Z,6.00
2023-09-11T16:25:46.361Z,5.60
2023-09-11T16:30:48.284Z,5.90
2023-09-11T16:35:50.269Z,5.40
2023-09-11T16:40:52.385Z,6.10
2023-09-11T16:45:54.444Z,6.50
2023-09-11T16:50:56.295Z,6.60
2023-09-11T16:55:58.183Z,8.60
2023-09-11T17:01:07.026Z,6.80
2023-09-11T17:06:08.933Z,7.90
2023-09-11T17:11:10.745Z,8.00
2023-09-11T17:16:12.642Z,7.70
2023-09-11T17:21:15.197Z,7.50
2023-09-11T17:26:17.474Z,7.50
2023-09-11T17:31:19.355Z,8.00
2023-09-11T17:36:21.326Z,9.10
2023-09-11T17:41:23.258Z,9.00
2023-09-11T17:46:25.162Z,8.70
2023-09-11T17:51:27.090Z,10.50
2023-09-11T17:56:28.884Z,11.30
2023-09-11T18:01:30.789Z,10.30
2023-09-11T18:06:32.651Z,11.10
2023-09-11T18:11:34.659Z,10.10
2023-09-11T18:16:36.449Z,11.40
2023-09-11T18:21:40.724Z,12.90
2023-09-11T18:26:43.600Z,13.40
2023-09-11T18:31:46.046Z,12.00
2023-09-11T18:36:49.238Z,11.90
2023-09-11T18:41:55.309Z,13.30
2023-09-11T18:46:57.086Z,12.40
2023-09-11T18:51:59.104Z,13.50
2023-09-11T18:57:02.188Z,14.20
2023-09-11T19:02:04.539Z,13.80
2023-09-11T19:07:06.367Z,14.70
2023-09-11T19:12:08.326Z,14.50
2023-09-11T19:17:11.217Z,14.90
2023-09-11T19:22:14.440Z,15.30
2023-09-11T19:27:16.405Z,15.80
2023-09-11T19:32:18.329Z,14.90
2023-09-11T19:37:20.107Z,16.10
2023-09-11T19:42:22.387Z,16.00
2023-09-11T19:47:26.067Z,15.60
2023-09-11T19:52:29.358Z,16.10
2023-09-11T19:57:34.976Z,16.80
2023-09-11T20:02:37.526Z,16.80
2023-09-11T20:07:39.515Z,15.00
2023-09-11T20:12:42.618Z,18.00
2023-09-11T20:17:45.239Z,16.10
2023-09-11T20:22:47.301Z,17.70
2023-09-11T20:27:49.168Z,15.20
2023-09-11T20:32:51.124Z,18.60
2023-09-11T20:37:53.263Z,17.80
2023-09-11T20:42:55.213Z,18.00
2023-09-11T20:47:57.374Z,17.20
2023-09-11T20:52:59.409Z,15.30
2023-09-11T20:58:01.289Z,16.60
2023-09-11T21:03:03.715Z,16.60
2023-09-11T21:08:05.891Z,18.30
2023-09-11T21:13:08.120Z,19.80
2023-09-11T21:18:10.611Z,16.60
2023-09-11T21:23:12.623Z,16.00
2023-09-11T21:28:14.440Z,16.00
2023-09-11T21:33:16.482Z,18.60
2023-09-11T21:38:18.557Z,20.20
2023-09-11T21:43:20.762Z,17.60
2023-09-11T21:48:22.796Z,17.20
2023-09-11T21:53:25.028Z,18.10
2023-09-11T21:58:26.965Z,17.30
2023-09-11T22:03:29.014Z,18.00
2023-09-11T22:08:31.112Z,17.40
2023-09-11T22:13:33.116Z,18.90
2023-09-11T22:18:34.992Z,22.60
2023-09-11T22:23:36.965Z,17.80
2023-09-11T22:28:38.881Z,17.90
2023-09-11T22:33:41.268Z,21.20
2023-09-11T22:38:44.469Z,18.00
2023-09-11T22:43:46.275Z,15.70
2023-09-11T22:48:48.270Z,21.20
2023-09-11T22:53:50.276Z,22.30
2023-09-11T22:58:52.184Z,21.00
2023-09-11T23:03:54.178Z,18.80
2023-09-11T23:08:56.335Z,20.00
2023-09-11T23:13:59.630Z,18.20
2023-09-11T23:19:01.717Z,17.60
2023-09-11T23:24:14.626Z,18.50
2023-09-11T23:29:19.329Z,19.00
2023-09-11T23:34:21.407Z,19.00
2023-09-11T23:39:23.631Z,20.70
2023-09-11T23:44:25.871Z,19.80
2023-09-11T23:49:27.798Z,22.60
2023-09-11T23:54:29.663Z,23.40
2023-09-11T23:59:32.560Z,24.60
